Time;durP1;ratioP1;P1;durP2;ratioP2;P2;SDS_P1;SDS_P2;PMS_P1;PMS_P2;Temp;Humidity;BMP_temperature;BMP_pressure;BME280_temperature;BME280_humidity;BME280_pressure;Samples;Min_cycle;Max_cycle;Signal;HPM_P1;HPM_P2
2022/08/10 00:01:05;;;;;;;5.18;4.40;;;;;;;26.17;86.52;100152.34;5086278;28;20190;-78
2022/08/10 00:03:33;;;;;;;4.57;4.18;;;;;;;26.42;86.58;100184.84;5075997;28;20194;-78
2022/08/10 00:06:00;;;;;;;5.47;4.80;;;;;;;26.24;86.34;100167.13;5074040;28;20225;-78
2022/08/10 00:08:28;;;;;;;8.82;4.40;;;;;;;26.42;85.90;100180.41;5056388;28;20222;-77
2022/08/10 00:10:56;;;;;;;8.50;4.68;;;;;;;26.47;85.81;100190.81;5076203;28;20199;-78
2022/08/10 00:13:24;;;;;;;5.43;4.20;;;;;;;26.44;86.00;100188.28;5086510;28;20681;-78
2022/08/10 00:15:52;;;;;;;4.10;3.80;;;;;;;26.37;86.15;100192.16;5093678;28;20201;-77
2022/08/10 00:18:19;;;;;;;9.63;3.97;;;;;;;26.30;86.70;100172.13;5077902;28;20287;-77
2022/08/10 00:20:47;;;;;;;8.48;3.88;;;;;;;26.35;86.90;100189.59;5073062;28;20748;-78
2022/08/10 00:23:14;;;;;;;4.50;4.10;;;;;;;26.32;86.35;100183.56;5058451;28;20217;-77
2022/08/10 00:25:40;;;;;;;6.53;3.97;;;;;;;26.38;86.01;100199.22;5074125;28;20763;-78
2022/08/10 00:28:07;;;;;;;5.38;3.65;;;;;;;26.34;85.60;100198.50;5081423;28;20210;-78
2022/08/10 00:30:34;;;;;;;7.15;3.75;;;;;;;26.36;85.41;100201.09;5090319;28;20198;-78
2022/08/10 00:33:01;;;;;;;4.35;3.95;;;;;;;26.39;84.87;100185.00;5072570;28;20213;-78
2022/08/10 00:35:28;;;;;;;5.03;3.67;;;;;;;26.40;84.80;100176.94;5072134;28;20678;-78
2022/08/10 00:37:57;;;;;;;4.15;3.67;;;;;;;26.49;84.83;100204.88;5053472;28;20206;-77
2022/08/10 00:40:24;;;;;;;6.88;3.92;;;;;;;26.47;85.40;100209.44;5083887;28;20194;-78
2022/08/10 00:42:50;;;;;;;7.60;4.32;;;;;;;26.48;84.88;100211.13;5037098;28;20207;-78
2022/08/10 00:45:17;;;;;;;4.40;3.95;;;;;;;26.37;85.69;100221.41;5078900;28;20213;-77
2022/08/10 00:47:44;;;;;;;3.58;3.25;;;;;;;26.52;84.91;100228.66;5080118;28;20207;-78
2022/08/10 00:50:11;;;;;;;5.30;3.95;;;;;;;26.53;84.76;100235.72;5089194;28;20194;-76
2022/08/10 00:52:40;;;;;;;4.70;3.60;;;;;;;26.35;86.75;100236.59;5080772;28;20194;-78
2022/08/10 00:55:08;;;;;;;5.43;4.25;;;;;;;26.55;85.86;100239.16;5073110;28;20199;-78
2022/08/10 00:57:35;;;;;;;6.55;4.00;;;;;;;26.41;86.25;100249.59;5073087;28;20203;-79
2022/08/10 01:00:05;;;;;;;8.27;3.83;;;;;;;26.55;85.75;100248.00;5074289;28;20195;-78
2022/08/10 01:02:32;;;;;;;6.10;4.47;;;;;;;26.60;87.41;100248.66;5093303;28;20202;-78
2022/08/10 01:05:02;;;;;;;8.38;4.70;;;;;;;26.63;91.25;100247.66;5091300;28;20226;-79
2022/08/10 01:08:13;;;;;;;5.00;4.00;;;;;;;26.66;93.13;100241.31;5080178;28;20199;-76
2022/08/10 01:10:56;;;;;;;7.60;4.65;;;;;;;26.62;95.09;100248.56;5016048;28;20208;-78
2022/08/10 01:13:27;;;;;;;13.93;4.70;;;;;;;26.51;95.92;100253.53;5045211;28;20211;-77
2022/08/10 01:16:01;;;;;;;10.05;4.70;;;;;;;26.45;94.60;100240.53;5016062;28;20203;-78
2022/08/10 01:18:40;;;;;;;6.90;4.22;;;;;;;26.34;98.76;100258.78;5048448;28;20184;-79
2022/08/10 01:21:34;;;;;;;8.10;4.72;;;;;;;26.18;100.00;100249.81;5041025;28;20605;-77
2022/08/10 01:24:37;;;;;;;8.63;4.82;;;;;;;25.98;100.00;100258.66;5030187;28;20211;-79
2022/08/10 01:27:18;;;;;;;7.68;4.70;;;;;;;26.00;100.00;100255.03;4870175;29;20208;-78
2022/08/10 01:29:59;;;;;;;11.05;4.70;;;;;;;26.15;100.00;100266.72;4876235;29;20205;-78
2022/08/10 01:32:46;;;;;;;4.50;4.20;;;;;;;26.23;98.72;100269.06;4876255;29;20214;-79
2022/08/10 01:35:18;;;;;;;7.63;4.40;;;;;;;26.24;98.66;100269.00;4828605;29;20210;-79
2022/08/10 01:37:57;;;;;;;9.48;4.80;;;;;;;26.22;100.00;100268.19;4839104;29;20269;-79
2022/08/10 01:40:27;;;;;;;6.13;5.18;;;;;;;26.05;100.00;100234.41;4813961;29;20203;-78
2022/08/10 01:42:58;;;;;;;6.07;4.18;;;;;;;26.12;100.00;100240.28;4806771;29;20681;-73
2022/08/10 01:45:28;;;;;;;7.10;5.32;;;;;;;26.14;100.00;100255.25;4833784;29;20241;-79
2022/08/10 01:50:46;;;;;;;11.40;4.40;;;;;;;26.10;100.00;100251.00;4874308;29;20836;-78
2022/08/10 01:53:20;;;;;;;9.00;4.50;;;;;;;26.20;100.00;100272.75;4864677;29;20230;-79
2022/08/10 01:55:49;;;;;;;4.95;4.55;;;;;;;26.16;100.00;100263.13;4857130;29;20210;-77
2022/08/10 01:58:18;;;;;;;6.55;4.20;;;;;;;26.21;100.00;100277.13;4863436;29;20213;-78
2022/08/10 02:00:50;;;;;;;4.75;4.30;;;;;;;26.24;100.00;100276.13;4875224;29;20202;-78
2022/08/10 02:03:19;;;;;;;5.07;4.30;;;;;;;26.19;100.00;100278.09;4903486;28;20222;-76
2022/08/10 02:05:53;;;;;;;5.45;3.80;;;;;;;26.06;99.89;100278.66;5025360;28;20223;-79
2022/08/10 02:08:23;;;;;;;8.20;4.32;;;;;;;25.91;100.00;100279.34;5035914;28;20281;-78
2022/08/10 02:10:52;;;;;;;5.72;4.30;;;;;;;25.68;100.00;100262.69;5049049;28;20210;-78
2022/08/10 02:13:21;;;;;;;10.80;4.43;;;;;;;25.58;100.00;100267.53;5085038;28;20225;-78
2022/08/10 02:15:52;;;;;;;8.32;3.80;;;;;;;25.76;100.00;100285.31;5083035;28;20202;-79
2022/08/10 02:18:21;;;;;;;5.25;3.65;;;;;;;25.49;100.00;100259.94;5084765;28;20191;-77
2022/08/10 02:20:50;;;;;;;7.47;3.78;;;;;;;25.45;100.00;100290.22;5072414;28;20214;-77
2022/08/10 02:23:19;;;;;;;4.47;3.92;;;;;;;25.49;100.00;100287.38;5035612;28;20729;-79
2022/08/10 02:25:48;;;;;;;10.50;4.07;;;;;;;25.43;100.00;100292.09;5071905;28;20215;-78
2022/08/10 02:28:19;;;;;;;6.38;4.40;;;;;;;25.39;100.00;100285.19;5079842;28;20201;-78
2022/08/10 02:30:48;;;;;;;5.55;4.10;;;;;;;25.38;100.00;100304.69;5074477;28;20205;-79
2022/08/10 02:33:19;;;;;;;6.15;4.35;;;;;;;25.45;100.00;100311.47;5071306;28;20211;-79
2022/08/10 02:35:48;;;;;;;5.40;3.40;;;;;;;25.46;100.00;100307.88;5070614;28;20597;-79
2022/08/10 02:38:18;;;;;;;5.97;3.72;;;;;;;25.34;100.00;100321.66;5070856;28;20202;-78
2022/08/10 02:40:49;;;;;;;5.82;3.90;;;;;;;25.16;100.00;100294.09;5063241;28;20244;-77
2022/08/10 02:43:21;;;;;;;4.00;3.70;;;;;;;25.38;100.00;100325.91;5090548;28;20198;-77
2022/08/10 02:45:52;;;;;;;5.20;3.83;;;;;;;25.31;100.00;100319.13;5078648;28;20290;-77
2022/08/10 02:48:24;;;;;;;3.83;3.53;;;;;;;25.24;100.00;100322.97;5081769;28;20688;-78
2022/08/10 02:50:57;;;;;;;4.70;3.60;;;;;;;25.08;100.00;100326.25;5076442;28;20195;-78
2022/08/10 02:53:30;;;;;;;5.20;3.60;;;;;;;25.08;100.00;100328.91;5070667;28;20607;-78
2022/08/10 02:56:00;;;;;;;6.60;4.32;;;;;;;25.20;100.00;100334.63;5070542;28;20203;-78
2022/08/10 02:58:33;;;;;;;5.13;4.00;;;;;;;25.12;100.00;100314.59;5071606;28;20195;-78
2022/08/10 03:01:04;;;;;;;6.05;3.92;;;;;;;25.32;100.00;100328.84;5084943;28;20206;-77
2022/08/10 03:03:39;;;;;;;12.07;3.35;;;;;;;25.16;100.00;100333.91;5090727;28;20198;-78
2022/08/10 03:06:11;;;;;;;4.60;3.95;;;;;;;25.04;100.00;100337.91;5055409;28;20752;-78
2022/08/10 03:08:42;;;;;;;3.97;3.35;;;;;;;24.94;100.00;100344.50;5055027;28;20207;-79
2022/08/10 03:11:16;;;;;;;6.43;4.03;;;;;;;24.93;100.00;100345.47;5085496;28;20201;-77
2022/08/10 03:13:44;;;;;;;3.90;3.60;;;;;;;24.85;100.00;100347.53;5089373;28;20284;-78
2022/08/10 03:16:12;;;;;;;6.95;3.78;;;;;;;24.81;100.00;100340.59;5039845;28;20201;-77
2022/08/10 03:18:42;;;;;;;4.47;3.80;;;;;;;24.96;100.00;100347.97;5088831;28;20652;-78
2022/08/10 03:21:09;;;;;;;5.75;3.40;;;;;;;24.74;100.00;100341.75;5088915;28;20198;-79
2022/08/10 03:23:38;;;;;;;9.52;3.72;;;;;;;24.77;100.00;100354.88;5090218;28;20198;-78
2022/08/10 03:26:06;;;;;;;3.55;3.17;;;;;;;24.72;100.00;100354.22;5071251;28;20221;-78
2022/08/10 03:28:34;;;;;;;4.05;3.65;;;;;;;24.91;100.00;100351.72;5080245;28;20206;-78
2022/08/10 03:31:02;;;;;;;10.13;3.58;;;;;;;24.80;100.00;100338.84;5090238;28;20194;-78
2022/08/10 03:33:32;;;;;;;4.75;3.33;;;;;;;24.83;100.00;100338.75;5090578;28;20190;-76
2022/08/10 03:36:00;;;;;;;6.13;2.92;;;;;;;24.76;100.00;100360.28;5085114;28;20614;-78
2022/08/10 03:38:27;;;;;;;2.95;2.75;;;;;;;24.84;100.00;100361.72;5053724;28;20205;-77
2022/08/10 03:40:57;;;;;;;5.28;3.22;;;;;;;24.76;100.00;100353.16;5088997;28;20210;-78
2022/08/10 03:43:25;;;;;;;3.85;2.80;;;;;;;24.73;100.00;100358.56;5051226;28;20195;-78
2022/08/10 03:45:55;;;;;;;3.97;2.60;;;;;;;24.81;100.00;100361.81;5073050;28;20698;-78
2022/08/10 03:48:23;;;;;;;4.95;3.38;;;;;;;24.69;100.00;100362.25;5083875;28;20871;-79
2022/08/10 03:50:51;;;;;;;3.22;3.03;;;;;;;24.84;100.00;100367.03;5071567;28;20203;-79
2022/08/10 03:53:20;;;;;;;3.13;2.92;;;;;;;24.98;100.00;100370.00;5080728;28;20202;-73
2022/08/10 03:55:48;;;;;;;3.45;3.15;;;;;;;24.83;100.00;100327.28;5089922;28;20229;-76
2022/08/10 03:58:15;;;;;;;3.42;2.85;;;;;;;24.88;100.00;100381.91;5054148;28;20209;-76
2022/08/10 04:00:43;;;;;;;4.07;2.92;;;;;;;25.04;100.00;100358.28;5075277;28;20680;-75
2022/08/10 04:03:11;;;;;;;7.10;2.88;;;;;;;25.57;98.58;100372.06;5069757;28;20206;-74
2022/08/10 04:05:38;;;;;;;4.75;2.60;;;;;;;25.40;96.19;100367.41;5034608;28;20238;-73
2022/08/10 04:08:05;;;;;;;6.50;2.97;;;;;;;25.44;95.80;100389.38;5079554;28;20320;-74
2022/08/10 04:10:33;;;;;;;3.30;3.08;;;;;;;25.63;94.93;100385.09;5037942;28;20280;-74
2022/08/10 04:13:00;;;;;;;3.22;3.03;;;;;;;25.82;93.52;100386.03;5053762;28;20214;-74
2022/08/10 04:15:27;;;;;;;5.25;2.58;;;;;;;26.02;91.82;100382.50;5069559;28;20195;-73
2022/08/10 04:17:54;;;;;;;6.90;3.05;;;;;;;26.20;89.76;100365.78;5070211;28;20195;-73
2022/08/10 04:20:28;;;;;;;2.92;2.60;;;;;;;26.72;86.70;100393.53;5070416;28;20293;-73
2022/08/10 04:22:56;;;;;;;4.68;3.17;;;;;;;26.59;87.11;100395.91;5069664;28;20203;-72
2022/08/10 04:25:25;;;;;;;4.90;2.67;;;;;;;26.02;90.91;100386.03;5067200;28;20198;-72
2022/08/10 04:27:54;;;;;;;3.00;2.70;;;;;;;26.10;91.62;100381.25;5069593;28;20205;-74
2022/08/10 04:30:21;;;;;;;5.90;3.25;;;;;;;26.03;91.43;100392.22;5066846;28;20199;-72
2022/08/10 04:32:52;;;;;;;4.32;2.88;;;;;;;26.22;90.51;100389.66;5064751;28;20211;-76
2022/08/10 04:35:22;;;;;;;3.95;2.67;;;;;;;26.24;89.75;100387.78;5058892;28;20652;-76
2022/08/10 04:37:51;;;;;;;2.78;2.58;;;;;;;26.10;90.37;100375.94;5065280;28;20241;-76
2022/08/10 04:40:18;;;;;;;4.80;2.47;;;;;;;26.32;88.97;100359.06;5074183;28;20207;-76
2022/08/10 04:42:46;;;;;;;5.82;2.75;;;;;;;26.65;87.91;100401.88;5071148;28;20191;-76
2022/08/10 04:45:15;;;;;;;3.35;2.55;;;;;;;26.43;86.96;100394.84;5083553;28;20262;-76
2022/08/10 04:47:42;;;;;;;3.10;2.90;;;;;;;26.03;90.36;100395.75;5081208;28;20191;-75
2022/08/10 04:50:09;;;;;;;3.88;3.05;;;;;;;25.91;91.54;100396.25;5048389;28;20205;-76
2022/08/10 04:52:36;;;;;;;6.40;3.38;;;;;;;25.99;90.62;100372.03;5091803;28;20206;-75
2022/08/10 04:55:03;;;;;;;6.18;3.13;;;;;;;26.25;90.10;100394.84;5092322;28;20213;-75
2022/08/10 04:57:30;;;;;;;4.40;3.50;;;;;;;26.38;89.08;100399.53;5064557;28;20568;-76
2022/08/10 04:59:57;;;;;;;5.32;3.30;;;;;;;26.22;89.70;100389.66;5092158;28;20212;-76
2022/08/10 05:02:26;;;;;;;4.30;3.28;;;;;;;26.06;90.67;100400.94;5091714;28;20209;-76
2022/08/10 05:04:52;;;;;;;3.58;3.28;;;;;;;25.82;93.68;100401.97;5076964;28;20571;-76
2022/08/10 05:07:19;;;;;;;5.43;3.20;;;;;;;25.86;92.18;100395.63;5082521;28;20215;-77
2022/08/10 05:09:47;;;;;;;4.57;3.72;;;;;;;25.98;92.89;100402.19;5078918;28;20569;-76
2022/08/10 05:12:14;;;;;;;3.47;3.10;;;;;;;25.76;93.43;100399.56;5073008;28;20202;-76
2022/08/10 05:14:41;;;;;;;5.70;3.05;;;;;;;25.71;93.87;100401.56;5076302;28;20198;-75
2022/08/10 05:17:07;;;;;;;3.33;3.13;;;;;;;25.96;93.50;100409.38;5084116;28;20210;-77
2022/08/10 05:19:36;;;;;;;4.65;2.63;;;;;;;26.29;89.59;100402.59;5071658;28;20206;-75
2022/08/10 05:22:03;;;;;;;3.42;3.13;;;;;;;26.32;87.94;100407.78;5073385;28;20207;-73
2022/08/10 05:24:30;;;;;;;5.40;3.03;;;;;;;26.60;87.76;100407.41;5075866;28;20195;-73
2022/08/10 05:26:57;;;;;;;4.70;3.00;;;;;;;26.46;86.58;100404.50;5064844;28;20234;-73
2022/08/10 05:29:24;;;;;;;3.08;2.80;;;;;;;26.71;84.91;100409.59;5059523;28;20195;-75
2022/08/10 05:31:51;;;;;;;3.22;2.92;;;;;;;26.81;83.84;100402.88;5056566;28;20660;-77
2022/08/10 05:34:18;;;;;;;3.05;2.83;;;;;;;26.66;84.42;100407.13;5018417;28;20204;-78
2022/08/10 05:36:47;;;;;;;9.88;2.90;;;;;;;26.64;85.26;100406.34;5050601;28;20262;-78
2022/08/10 05:39:16;;;;;;;7.00;3.15;;;;;;;26.40;85.49;100364.88;5060596;28;20207;-77
2022/08/10 05:41:43;;;;;;;4.90;3.22;;;;;;;26.37;87.61;100378.31;5075315;28;20907;-78
2022/08/10 05:44:10;;;;;;;5.40;2.42;;;;;;;26.71;85.28;100386.50;5080530;28;20622;-77
2022/08/10 05:46:37;;;;;;;3.47;2.50;;;;;;;26.56;85.03;100392.53;5062414;28;20690;-78
2022/08/10 05:49:04;;;;;;;2.80;2.60;;;;;;;26.72;84.03;100411.31;5068866;28;20253;-78
2022/08/10 05:51:31;;;;;;;5.38;2.70;;;;;;;26.86;82.47;100409.75;5060584;28;20215;-74
2022/08/10 05:54:00;;;;;;;3.08;2.78;;;;;;;27.09;80.19;100401.56;5052090;28;20191;-76
2022/08/10 05:56:28;;;;;;;5.90;2.97;;;;;;;27.24;80.00;100415.06;5068267;28;20210;-77
2022/08/10 05:58:55;;;;;;;3.08;2.38;;;;;;;26.88;80.75;100415.00;5072114;28;20206;-73
2022/08/10 06:01:25;;;;;;;6.13;2.60;;;;;;;27.15;79.76;100415.53;5032955;28;20196;-76
2022/08/10 06:03:57;;;;;;;8.48;3.03;;;;;;;26.75;80.41;100417.34;5064428;28;20207;-77
2022/08/10 06:06:27;;;;;;;4.75;2.60;;;;;;;26.64;81.00;100403.69;5071755;28;20323;-76
2022/08/10 06:08:57;;;;;;;3.25;2.50;;;;;;;26.36;83.53;100409.34;5059917;28;20212;-77
2022/08/10 06:11:29;;;;;;;3.53;2.53;;;;;;;26.63;81.96;100412.59;5065108;28;20227;-76
2022/08/10 06:16:42;;;;;;;3.00;2.55;;;;;;;26.38;84.92;100401.31;5006335;28;20207;-76
2022/08/10 06:19:10;;;;;;;7.47;2.35;;;;;;;26.06;82.70;100320.31;5006233;28;20209;-76
2022/08/10 06:21:38;;;;;;;2.60;2.40;;;;;;;26.43;84.08;100394.03;5006204;28;20197;-76
2022/08/10 06:24:09;;;;;;;3.00;2.38;;;;;;;26.88;82.02;100394.59;5006366;28;20204;-75
2022/08/10 06:26:38;;;;;;;3.50;2.65;;;;;;;27.13;82.00;100361.47;5002905;28;20619;-76
2022/08/10 06:29:07;;;;;;;3.28;3.05;;;;;;;26.87;82.68;100394.66;4973475;28;20205;-75
2022/08/10 06:31:39;;;;;;;4.68;3.60;;;;;;;26.80;85.26;100393.16;5007239;28;20209;-76
2022/08/10 06:34:10;;;;;;;3.13;2.92;;;;;;;26.34;87.09;100387.31;5009270;28;20196;-75
2022/08/10 06:36:38;;;;;;;5.47;3.50;;;;;;;26.23;89.38;100378.06;5008716;28;20239;-76
2022/08/10 06:39:06;;;;;;;5.65;3.63;;;;;;;26.41;89.07;100391.41;4992733;28;20293;-76
2022/08/10 06:41:36;;;;;;;3.92;3.67;;;;;;;26.35;91.05;100382.84;5009121;28;20227;-76
2022/08/10 06:44:08;;;;;;;6.03;3.92;;;;;;;26.67;89.30;100374.28;5009035;28;20638;-76
2022/08/10 06:46:39;;;;;;;4.00;3.70;;;;;;;26.55;89.89;100388.13;5008743;28;20239;-76
2022/08/10 06:49:09;;;;;;;3.58;3.38;;;;;;;26.01;93.45;100384.31;5009119;28;20209;-76
2022/08/10 06:51:39;;;;;;;4.75;3.13;;;;;;;25.94;94.85;100390.81;5008805;28;20208;-76
2022/08/10 06:54:09;;;;;;;3.47;3.13;;;;;;;25.51;98.33;100390.88;5044761;28;20210;-76
2022/08/10 06:56:40;;;;;;;3.95;3.55;;;;;;;25.46;100.00;100387.53;5064319;28;20191;-76
2022/08/10 06:59:11;;;;;;;3.83;3.47;;;;;;;25.39;99.95;100386.06;5067397;28;20198;-76
2022/08/10 07:01:41;;;;;;;5.22;3.67;;;;;;;25.44;100.00;100381.41;5070077;28;20236;-76
2022/08/10 07:04:11;;;;;;;3.38;3.17;;;;;;;25.28;100.00;100383.84;5062166;28;20207;-75
2022/08/10 07:06:43;;;;;;;3.85;3.47;;;;;;;25.52;100.00;100390.84;5060403;28;20227;-76
2022/08/10 07:09:11;;;;;;;3.92;3.63;;;;;;;25.57;99.50;100380.03;5053575;28;20215;-77
2022/08/10 07:11:39;;;;;;;3.25;3.00;;;;;;;25.33;99.30;100357.97;5050413;28;20198;-77
2022/08/10 07:14:10;;;;;;;4.45;3.88;;;;;;;25.58;99.41;100376.44;5049994;28;20655;-76
2022/08/10 07:16:41;;;;;;;4.72;4.03;;;;;;;25.71;98.65;100382.97;5050361;28;20200;-76
2022/08/10 07:19:09;;;;;;;4.00;3.70;;;;;;;25.83;97.02;100370.94;5050249;28;20203;-76
2022/08/10 07:21:39;;;;;;;4.13;3.75;;;;;;;25.55;99.14;100372.13;5050494;28;20227;-76
2022/08/10 07:24:09;;;;;;;4.72;4.32;;;;;;;25.74;99.31;100390.81;5031594;28;20196;-77
2022/08/10 07:26:38;;;;;;;9.35;4.80;;;;;;;25.80;99.06;100387.88;5050226;28;20223;-77
2022/08/10 07:29:05;;;;;;;5.07;4.53;;;;;;;25.98;99.70;100363.19;5050166;28;20214;-76
2022/08/10 07:31:35;;;;;;;5.38;4.60;;;;;;;26.08;94.96;100388.41;5067694;28;20191;-77
2022/08/10 07:34:05;;;;;;;4.85;4.35;;;;;;;25.96;96.82;100370.38;5070440;28;20235;-74
2022/08/10 07:36:33;;;;;;;5.35;4.30;;;;;;;26.07;95.81;100369.91;5070064;28;20266;-75
2022/08/10 07:39:01;;;;;;;3.88;3.45;;;;;;;25.83;95.09;100366.50;5034505;28;20633;-75
2022/08/10 07:41:30;;;;;;;5.63;3.90;;;;;;;25.95;97.29;100387.22;5070345;28;20221;-75
2022/08/10 07:44:01;;;;;;;5.32;3.75;;;;;;;26.17;94.21;100395.13;5070026;28;20260;-74
2022/08/10 07:46:30;;;;;;;4.63;3.63;;;;;;;26.00;95.92;100387.91;5070172;28;20199;-74
2022/08/10 07:49:04;;;;;;;3.95;3.67;;;;;;;26.05;95.62;100404.50;5070118;28;20202;-74
2022/08/10 07:51:32;;;;;;;6.57;4.80;;;;;;;26.32;93.52;100380.34;5070404;28;20682;-74
2022/08/10 07:54:01;;;;;;;6.32;4.43;;;;;;;26.05;95.15;100404.50;5067744;28;20237;-74
2022/08/10 07:56:30;;;;;;;6.13;4.43;;;;;;;26.35;93.71;100409.44;5069785;28;20210;-75
2022/08/10 07:59:03;;;;;;;4.28;3.97;;;;;;;26.61;92.60;100419.78;5069763;28;20214;-75
2022/08/10 08:01:34;;;;;;;6.15;4.25;;;;;;;27.04;89.52;100414.22;5069812;28;20198;-76
2022/08/10 08:04:05;;;;;;;7.90;3.88;;;;;;;26.92;89.93;100417.47;5069703;28;20256;-75
2022/08/10 08:06:33;;;;;;;4.93;3.97;;;;;;;27.03;87.38;100409.84;5069550;28;20202;-74
2022/08/10 08:09:02;;;;;;;4.47;4.18;;;;;;;27.39;87.13;100409.88;5069817;28;20214;-75
2022/08/10 08:11:30;;;;;;;3.70;3.50;;;;;;;27.27;85.07;100404.25;5069764;28;20632;-76
2022/08/10 08:14:00;;;;;;;7.20;4.07;;;;;;;27.44;85.44;100418.47;5069340;28;20198;-75
2022/08/10 08:16:28;;;;;;;4.25;3.95;;;;;;;27.01;86.11;100410.84;5069494;28;20194;-75
2022/08/10 08:18:56;;;;;;;3.53;3.33;;;;;;;27.08;87.11;100410.47;5064857;28;20218;-76
2022/08/10 08:21:27;;;;;;;4.60;4.20;;;;;;;26.81;88.25;100394.91;5069569;28;20206;-76
2022/08/10 08:23:55;;;;;;;4.80;4.13;;;;;;;27.11;87.05;100420.97;5069130;28;20195;-77
2022/08/10 08:26:23;;;;;;;4.57;4.05;;;;;;;27.39;86.06;100423.19;5070922;28;20194;-78
2022/08/10 08:28:51;;;;;;;5.07;4.07;;;;;;;27.74;83.51;100428.59;5073146;28;20229;-77
2022/08/10 08:31:19;;;;;;;4.07;3.78;;;;;;;27.73;83.60;100427.75;5073333;28;20600;-76
2022/08/10 08:33:47;;;;;;;6.80;4.07;;;;;;;27.37;82.44;100394.88;5072614;28;20199;-76
2022/08/10 08:36:16;;;;;;;4.18;3.80;;;;;;;27.52;82.87;100426.13;5072606;28;20230;-77
2022/08/10 08:38:46;;;;;;;5.25;4.05;;;;;;;27.90;80.19;100417.06;5072940;28;20248;-77
2022/08/10 08:41:42;;;;;;;12.52;4.78;;;;;;;28.17;78.30;100424.66;5070608;28;20210;-76
2022/08/10 08:44:16;;;;;;;4.43;4.13;;;;;;;27.72;82.39;100433.16;5069599;28;20199;-75
2022/08/10 08:47:12;;;;;;;5.93;4.70;;;;;;;27.99;79.94;100426.44;5038899;28;20207;-75
2022/08/10 08:49:48;;;;;;;5.25;4.25;;;;;;;28.07;80.37;100425.09;5073002;28;20214;-76
2022/08/10 08:52:27;;;;;;;4.68;4.25;;;;;;;27.20;82.22;100360.22;5072591;28;20226;-76
2022/08/10 08:55:09;;;;;;;5.53;3.70;;;;;;;27.35;83.95;100429.59;5072706;28;20214;-76
2022/08/10 08:57:45;;;;;;;4.25;3.83;;;;;;;27.51;82.02;100405.75;5037474;28;20210;-76
2022/08/10 09:00:18;;;;;;;6.13;3.72;;;;;;;27.72;82.03;100431.34;5072786;28;20190;-77
2022/08/10 09:03:05;;;;;;;3.95;3.60;;;;;;;27.30;82.60;100426.28;5036285;28;20194;-77
2022/08/10 09:05:43;;;;;;;3.80;3.50;;;;;;;27.29;84.43;100426.38;5070608;28;20203;-76
2022/08/10 09:08:37;;;;;;;4.97;4.13;;;;;;;27.50;82.08;100418.22;5071342;28;20624;-77
2022/08/10 09:11:13;;;;;;;4.18;3.83;;;;;;;27.96;81.17;100422.13;5057405;28;20214;-76
2022/08/10 09:13:48;;;;;;;4.50;3.78;;;;;;;27.94;78.82;100408.00;5071737;28;20667;-76
2022/08/10 09:16:26;;;;;;;4.80;4.35;;;;;;;28.40;76.01;100410.94;5071232;28;20210;-75
2022/08/10 09:19:00;;;;;;;4.13;3.83;;;;;;;28.35;76.57;100418.34;5058530;28;20210;-76
2022/08/10 09:21:36;;;;;;;4.57;3.55;;;;;;;27.66;81.15;100417.47;5057261;28;20207;-77
2022/08/10 09:24:10;;;;;;;4.22;3.83;;;;;;;27.89;78.29;100399.38;5059629;28;20206;-77
2022/08/10 09:26:48;;;;;;;4.28;3.97;;;;;;;27.77;77.48;100405.31;5053752;28;20210;-77
2022/08/10 09:29:21;;;;;;;10.40;3.85;;;;;;;28.12;76.35;100413.34;5053552;28;20203;-77
2022/08/10 09:31:55;;;;;;;5.38;4.22;;;;;;;28.20;76.07;100411.16;5071962;28;20203;-78
2022/08/10 09:34:30;;;;;;;6.03;4.10;;;;;;;28.32;75.28;100403.38;5053900;28;20199;-77
2022/08/10 09:37:16;;;;;;;6.65;4.03;;;;;;;27.90;76.90;100409.09;5076212;28;20230;-76
2022/08/10 09:39:52;;;;;;;7.68;4.20;;;;;;;28.01;77.35;100397.88;5068908;28;20227;-78
2022/08/10 09:42:32;;;;;;;5.07;4.60;;;;;;;28.40;75.27;100402.94;5059245;28;20203;-78
2022/08/10 09:45:03;;;;;;;4.13;3.70;;;;;;;28.64;73.26;100385.63;5051605;28;20695;-80
2022/08/10 09:47:52;;;;;;;7.93;4.28;;;;;;;29.18;70.60;100404.91;5051811;28;20230;-77
2022/08/10 09:50:24;;;;;;;8.30;3.72;;;;;;;29.34;68.47;100400.44;5051757;28;20588;-78
2022/08/10 09:53:04;;;;;;;4.57;3.95;;;;;;;29.87;66.23;100394.66;5061976;28;20591;-78
2022/08/10 09:55:42;;;;;;;4.43;3.90;;;;;;;29.85;66.86;100381.41;5070486;28;20710;-77
2022/08/10 09:58:28;;;;;;;6.00;4.40;;;;;;;30.22;66.92;100384.50;5073940;28;20206;-78
2022/08/10 10:01:03;;;;;;;7.43;4.70;;;;;;;29.93;67.12;100392.47;5071650;28;20659;-79
2022/08/10 10:03:32;;;;;;;4.65;4.20;;;;;;;29.27;70.76;100372.34;5071778;28;20861;-78
2022/08/10 10:06:08;;;;;;;5.45;4.60;;;;;;;29.04;71.53;100389.63;5071559;28;20636;-79
2022/08/10 10:08:45;;;;;;;6.95;4.50;;;;;;;29.08;72.51;100399.22;5071594;28;20226;-78
2022/08/10 10:11:18;;;;;;;5.93;4.60;;;;;;;28.81;74.27;100390.06;5071550;28;20765;-78
2022/08/10 10:13:59;;;;;;;4.53;4.22;;;;;;;29.37;71.87;100394.91;5071425;28;20211;-78
2022/08/10 10:16:52;;;;;;;8.82;3.88;;;;;;;29.52;70.11;100388.69;5071139;28;20199;-78
2022/08/10 10:19:35;;;;;;;4.35;4.05;;;;;;;29.84;67.76;100394.81;4989671;28;20201;-77
2022/08/10 10:22:13;;;;;;;4.50;4.10;;;;;;;29.37;69.04;100392.25;4989518;28;20387;-76
2022/08/10 10:24:46;;;;;;;8.60;4.20;;;;;;;28.94;71.67;100375.09;4989563;28;20201;-79
2022/08/10 10:27:23;;;;;;;8.70;4.85;;;;;;;29.16;73.14;100406.78;4988916;28;20198;-78
2022/08/10 10:29:59;;;;;;;7.13;4.63;;;;;;;28.84;75.87;100388.09;4973169;28;20727;-80
2022/08/10 10:32:35;;;;;;;4.95;4.45;;;;;;;28.96;75.92;100391.91;4973190;28;20197;-78
2022/08/10 10:35:07;;;;;;;5.47;4.05;;;;;;;28.98;76.24;100381.97;4989438;28;20205;-78
2022/08/10 10:37:36;;;;;;;8.02;4.15;;;;;;;29.23;74.07;100389.47;4989207;28;20259;-78
2022/08/10 10:40:05;;;;;;;5.20;4.70;;;;;;;29.21;74.29;100378.91;4941006;28;20585;-78
2022/08/10 10:42:38;;;;;;;5.63;4.25;;;;;;;29.19;73.56;100359.41;4957268;28;20204;-78
2022/08/10 10:45:18;;;;;;;5.53;4.70;;;;;;;29.68;70.83;100384.16;4956746;28;20198;-78
2022/08/10 10:48:04;;;;;;;4.20;3.85;;;;;;;29.97;69.20;100377.97;4988956;28;20237;-77
2022/08/10 10:50:38;;;;;;;4.38;3.80;;;;;;;29.93;67.13;100373.75;4988543;28;20197;-78
2022/08/10 10:53:13;;;;;;;8.13;4.38;;;;;;;30.40;63.88;100381.56;5000902;28;20254;-77
2022/08/10 10:56:00;;;;;;;6.15;4.50;;;;;;;30.70;60.97;100378.81;5017887;28;20199;-80
2022/08/10 10:58:39;;;;;;;7.88;4.25;;;;;;;30.37;61.39;100380.91;5050861;28;20286;-77
2022/08/10 11:01:14;;;;;;;6.65;3.92;;;;;;;30.58;61.79;100365.34;5050420;28;20198;-76
2022/08/10 11:03:56;;;;;;;4.88;3.90;;;;;;;30.95;58.68;100386.16;5050484;28;20199;-78
2022/08/10 11:06:36;;;;;;;6.70;4.05;;;;;;;30.92;58.26;100387.22;5050278;28;20202;-78
2022/08/10 11:09:09;;;;;;;6.15;4.35;;;;;;;31.40;57.12;100372.44;5050484;28;20222;-77
2022/08/10 11:11:39;;;;;;;5.32;4.20;;;;;;;31.66;57.35;100354.66;5050398;28;20191;-79
2022/08/10 11:14:16;;;;;;;4.07;3.63;;;;;;;31.61;58.56;100369.31;5049932;28;20202;-78
2022/08/10 11:16:52;;;;;;;8.70;4.20;;;;;;;31.54;60.65;100379.59;5050043;28;20202;-76
2022/08/10 11:19:25;;;;;;;4.38;4.07;;;;;;;30.48;62.88;100373.97;5050325;28;20205;-78
2022/08/10 11:22:05;;;;;;;4.22;3.92;;;;;;;31.20;61.84;100380.09;5050142;28;20199;-77
2022/08/10 11:24:42;;;;;;;6.18;4.07;;;;;;;30.85;62.06;100372.50;5050026;28;20235;-78
2022/08/10 11:27:15;;;;;;;4.78;3.60;;;;;;;30.57;60.23;100369.84;5050153;28;20207;-77
2022/08/10 11:29:51;;;;;;;7.30;3.78;;;;;;;30.70;60.29;100367.25;5050150;28;20718;-78
2022/08/10 11:32:25;;;;;;;3.72;3.42;;;;;;;30.77;59.24;100365.91;5049951;28;20656;-77
2022/08/10 11:35:03;;;;;;;4.38;3.90;;;;;;;31.04;58.19;100364.16;5050126;28;20197;-78
2022/08/10 11:37:38;;;;;;;4.53;4.07;;;;;;;30.87;58.82;100351.81;5049930;28;20230;-77
2022/08/10 11:40:12;;;;;;;5.65;3.92;;;;;;;30.91;58.31;100357.84;5050268;28;20194;-78
2022/08/10 11:42:43;;;;;;;3.47;3.20;;;;;;;31.04;57.78;100355.28;5049927;28;20195;-77
2022/08/10 11:45:13;;;;;;;4.95;3.72;;;;;;;30.73;58.82;100342.94;5047659;28;20191;-77
2022/08/10 11:47:47;;;;;;;6.57;3.90;;;;;;;31.15;57.77;100360.75;5071636;28;20617;-77
2022/08/10 11:50:25;;;;;;;6.25;3.63;;;;;;;31.25;58.89;100356.53;5069132;28;20195;-78